sensor_id;sensor_type;location;lat;lon;timestamp;P1;durP1;ratioP1;P2;durP2;ratioP2
19251;SDS011;9760;50.944;5.304;2023-06-22T00:00:52;15.27;;;5.13;;
19251;SDS011;9760;50.944;5.304;2023-06-22T00:03:19;17.00;;;5.00;;
19251;SDS011;9760;50.944;5.304;2023-06-22T00:05:46;8.83;;;4.10;;
19251;SDS011;9760;50.944;5.304;2023-06-22T00:08:12;15.50;;;5.57;;
19251;SDS011;9760;50.944;5.304;2023-06-22T00:10:38;18.73;;;5.70;;
19251;SDS011;9760;50.944;5.304;2023-06-22T00:13:05;20.00;;;5.43;;
19251;SDS011;9760;50.944;5.304;2023-06-22T00:15:32;14.27;;;5.20;;
19251;SDS011;9760;50.944;5.304;2023-06-22T00:17:58;17.60;;;5.77;;
19251;SDS011;9760;50.944;5.304;2023-06-22T00:20:24;17.83;;;5.87;;
19251;SDS011;9760;50.944;5.304;2023-06-22T00:22:56;20.57;;;5.63;;
19251;SDS011;9760;50.944;5.304;2023-06-22T00:25:22;12.93;;;4.77;;
19251;SDS011;9760;50.944;5.304;2023-06-22T00:27:48;14.87;;;5.20;;
19251;SDS011;9760;50.944;5.304;2023-06-22T00:30:18;15.33;;;5.27;;
19251;SDS011;9760;50.944;5.304;2023-06-22T00:32:44;13.40;;;4.87;;
19251;SDS011;9760;50.944;5.304;2023-06-22T00:35:11;16.40;;;5.13;;
19251;SDS011;9760;50.944;5.304;2023-06-22T00:37:37;10.70;;;4.93;;
19251;SDS011;9760;50.944;5.304;2023-06-22T00:40:09;14.90;;;4.60;;
19251;SDS011;9760;50.944;5.304;2023-06-22T00:42:39;13.80;;;4.87;;
19251;SDS011;9760;50.944;5.304;2023-06-22T00:45:05;12.80;;;5.00;;
19251;SDS011;9760;50.944;5.304;2023-06-22T00:47:32;10.97;;;4.30;;
19251;SDS011;9760;50.944;5.304;2023-06-22T00:49:59;11.07;;;4.63;;
19251;SDS011;9760;50.944;5.304;2023-06-22T00:52:25;7.90;;;4.50;;
19251;SDS011;9760;50.944;5.304;2023-06-22T00:54:54;8.10;;;3.83;;
19251;SDS011;9760;50.944;5.304;2023-06-22T00:57:22;7.77;;;4.03;;
19251;SDS011;9760;50.944;5.304;2023-06-22T00:59:52;7.90;;;3.93;;
19251;SDS011;9760;50.944;5.304;2023-06-22T01:02:18;9.33;;;3.63;;
19251;SDS011;9760;50.944;5.304;2023-06-22T01:04:44;10.20;;;4.17;;
19251;SDS011;9760;50.944;5.304;2023-06-22T01:07:19;11.43;;;4.27;;
19251;SDS011;9760;50.944;5.304;2023-06-22T01:12:34;10.83;;;4.00;;
19251;SDS011;9760;50.944;5.304;2023-06-22T01:15:13;6.13;;;3.67;;
19251;SDS011;9760;50.944;5.304;2023-06-22T01:17:44;10.23;;;3.83;;
19251;SDS011;9760;50.944;5.304;2023-06-22T01:20:10;7.57;;;4.07;;
19251;SDS011;9760;50.944;5.304;2023-06-22T01:22:45;8.00;;;4.00;;
19251;SDS011;9760;50.944;5.304;2023-06-22T01:31:10;8.73;;;3.77;;
19251;SDS011;9760;50.944;5.304;2023-06-22T01:33:37;5.07;;;3.60;;
19251;SDS011;9760;50.944;5.304;2023-06-22T01:36:05;4.50;;;3.30;;
19251;SDS011;9760;50.944;5.304;2023-06-22T01:38:32;7.10;;;3.57;;
19251;SDS011;9760;50.944;5.304;2023-06-22T01:40:59;15.97;;;4.07;;
19251;SDS011;9760;50.944;5.304;2023-06-22T01:43:26;8.50;;;3.87;;
19251;SDS011;9760;50.944;5.304;2023-06-22T01:45:53;6.73;;;4.07;;
19251;SDS011;9760;50.944;5.304;2023-06-22T01:48:20;8.03;;;4.07;;
19251;SDS011;9760;50.944;5.304;2023-06-22T01:50:47;7.40;;;3.50;;
19251;SDS011;9760;50.944;5.304;2023-06-22T01:53:13;8.37;;;4.23;;
19251;SDS011;9760;50.944;5.304;2023-06-22T01:55:38;8.17;;;4.03;;
19251;SDS011;9760;50.944;5.304;2023-06-22T01:58:04;8.07;;;4.63;;
19251;SDS011;9760;50.944;5.304;2023-06-22T02:00:31;8.50;;;4.27;;
19251;SDS011;9760;50.944;5.304;2023-06-22T02:03:11;7.20;;;4.03;;
19251;SDS011;9760;50.944;5.304;2023-06-22T02:05:55;5.73;;;3.57;;
19251;SDS011;9760;50.944;5.304;2023-06-22T02:08:30;6.07;;;3.90;;
19251;SDS011;9760;50.944;5.304;2023-06-22T02:10:59;7.23;;;3.80;;
19251;SDS011;9760;50.944;5.304;2023-06-22T02:13:27;8.63;;;3.80;;
19251;SDS011;9760;50.944;5.304;2023-06-22T02:15:53;14.27;;;3.73;;
19251;SDS011;9760;50.944;5.304;2023-06-22T02:18:19;7.33;;;4.10;;
19251;SDS011;9760;50.944;5.304;2023-06-22T02:20:45;5.33;;;3.70;;
19251;SDS011;9760;50.944;5.304;2023-06-22T02:23:11;8.87;;;4.23;;
19251;SDS011;9760;50.944;5.304;2023-06-22T02:25:37;11.50;;;4.77;;
19251;SDS011;9760;50.944;5.304;2023-06-22T02:28:03;14.43;;;4.93;;
19251;SDS011;9760;50.944;5.304;2023-06-22T02:30:29;6.73;;;4.23;;
19251;SDS011;9760;50.944;5.304;2023-06-22T02:32:54;12.73;;;4.60;;
19251;SDS011;9760;50.944;5.304;2023-06-22T02:35:24;9.00;;;4.93;;
19251;SDS011;9760;50.944;5.304;2023-06-22T02:37:57;9.13;;;5.63;;
19251;SDS011;9760;50.944;5.304;2023-06-22T02:40:24;13.33;;;6.10;;
19251;SDS011;9760;50.944;5.304;2023-06-22T02:42:50;12.73;;;6.33;;
19251;SDS011;9760;50.944;5.304;2023-06-22T02:45:16;15.73;;;6.43;;
19251;SDS011;9760;50.944;5.304;2023-06-22T02:47:41;12.53;;;5.97;;
19251;SDS011;9760;50.944;5.304;2023-06-22T02:50:07;14.67;;;6.00;;
19251;SDS011;9760;50.944;5.304;2023-06-22T02:52:33;13.10;;;6.50;;
19251;SDS011;9760;50.944;5.304;2023-06-22T02:54:59;15.53;;;7.37;;
19251;SDS011;9760;50.944;5.304;2023-06-22T02:57:24;14.80;;;8.07;;
19251;SDS011;9760;50.944;5.304;2023-06-22T02:59:50;11.43;;;6.57;;
19251;SDS011;9760;50.944;5.304;2023-06-22T03:02:16;15.17;;;8.87;;
19251;SDS011;9760;50.944;5.304;2023-06-22T03:04:41;19.97;;;8.53;;
19251;SDS011;9760;50.944;5.304;2023-06-22T03:07:08;14.13;;;8.90;;
19251;SDS011;9760;50.944;5.304;2023-06-22T03:09:33;14.97;;;9.07;;
19251;SDS011;9760;50.944;5.304;2023-06-22T03:11:59;17.47;;;10.53;;
19251;SDS011;9760;50.944;5.304;2023-06-22T03:14:25;14.37;;;9.77;;
19251;SDS011;9760;50.944;5.304;2023-06-22T03:16:51;20.27;;;10.57;;
19251;SDS011;9760;50.944;5.304;2023-06-22T03:19:16;21.60;;;10.63;;
19251;SDS011;9760;50.944;5.304;2023-06-22T03:21:42;21.53;;;10.93;;
19251;SDS011;9760;50.944;5.304;2023-06-22T03:24:08;19.53;;;11.07;;
19251;SDS011;9760;50.944;5.304;2023-06-22T03:26:34;17.03;;;10.57;;
19251;SDS011;9760;50.944;5.304;2023-06-22T03:29:00;21.30;;;11.80;;
19251;SDS011;9760;50.944;5.304;2023-06-22T03:31:25;19.50;;;11.17;;
19251;SDS011;9760;50.944;5.304;2023-06-22T03:33:51;21.57;;;12.40;;
19251;SDS011;9760;50.944;5.304;2023-06-22T03:36:17;23.57;;;13.27;;
19251;SDS011;9760;50.944;5.304;2023-06-22T03:38:47;25.13;;;13.37;;
19251;SDS011;9760;50.944;5.304;2023-06-22T03:41:14;21.73;;;12.93;;
19251;SDS011;9760;50.944;5.304;2023-06-22T03:43:40;20.87;;;13.93;;
19251;SDS011;9760;50.944;5.304;2023-06-22T03:46:06;21.53;;;12.97;;
19251;SDS011;9760;50.944;5.304;2023-06-22T03:48:31;28.27;;;14.03;;
19251;SDS011;9760;50.944;5.304;2023-06-22T03:50:58;23.53;;;13.50;;
19251;SDS011;9760;50.944;5.304;2023-06-22T03:53:25;22.40;;;12.70;;
19251;SDS011;9760;50.944;5.304;2023-06-22T03:55:51;26.57;;;12.53;;
19251;SDS011;9760;50.944;5.304;2023-06-22T03:58:17;23.13;;;13.13;;
19251;SDS011;9760;50.944;5.304;2023-06-22T04:00:48;22.30;;;13.80;;
19251;SDS011;9760;50.944;5.304;2023-06-22T04:03:14;24.97;;;14.30;;
19251;SDS011;9760;50.944;5.304;2023-06-22T04:05:40;19.80;;;13.37;;
19251;SDS011;9760;50.944;5.304;2023-06-22T04:08:06;24.13;;;14.03;;
19251;SDS011;9760;50.944;5.304;2023-06-22T04:10:32;28.87;;;15.40;;
19251;SDS011;9760;50.944;5.304;2023-06-22T04:12:57;24.23;;;14.17;;
19251;SDS011;9760;50.944;5.304;2023-06-22T04:15:23;24.47;;;15.00;;
19251;SDS011;9760;50.944;5.304;2023-06-22T04:17:49;24.30;;;14.47;;
19251;SDS011;9760;50.944;5.304;2023-06-22T04:20:14;22.97;;;13.70;;
19251;SDS011;9760;50.944;5.304;2023-06-22T04:22:40;29.57;;;14.67;;
19251;SDS011;9760;50.944;5.304;2023-06-22T04:25:06;25.93;;;12.73;;
19251;SDS011;9760;50.944;5.304;2023-06-22T04:27:35;26.23;;;14.30;;
19251;SDS011;9760;50.944;5.304;2023-06-22T04:30:04;21.27;;;13.43;;
19251;SDS011;9760;50.944;5.304;2023-06-22T04:32:32;25.97;;;14.20;;
19251;SDS011;9760;50.944;5.304;2023-06-22T04:34:58;18.77;;;13.40;;
19251;SDS011;9760;50.944;5.304;2023-06-22T04:37:25;23.27;;;14.87;;
19251;SDS011;9760;50.944;5.304;2023-06-22T04:39:51;29.30;;;14.73;;
19251;SDS011;9760;50.944;5.304;2023-06-22T04:42:17;25.60;;;14.53;;
19251;SDS011;9760;50.944;5.304;2023-06-22T04:44:42;26.43;;;14.93;;
19251;SDS011;9760;50.944;5.304;2023-06-22T04:47:08;25.83;;;13.87;;
19251;SDS011;9760;50.944;5.304;2023-06-22T04:49:34;19.23;;;13.97;;
19251;SDS011;9760;50.944;5.304;2023-06-22T04:52:09;23.00;;;13.73;;
19251;SDS011;9760;50.944;5.304;2023-06-22T04:54:36;24.87;;;13.80;;
19251;SDS011;9760;50.944;5.304;2023-06-22T04:57:03;26.43;;;13.77;;
19251;SDS011;9760;50.944;5.304;2023-06-22T04:59:35;24.07;;;14.47;;
19251;SDS011;9760;50.944;5.304;2023-06-22T05:02:04;26.07;;;14.20;;
19251;SDS011;9760;50.944;5.304;2023-06-22T05:04:30;24.87;;;14.70;;
19251;SDS011;9760;50.944;5.304;2023-06-22T05:06:57;31.27;;;13.37;;
19251;SDS011;9760;50.944;5.304;2023-06-22T05:09:24;25.23;;;12.90;;
19251;SDS011;9760;50.944;5.304;2023-06-22T05:11:50;24.63;;;14.93;;
19251;SDS011;9760;50.944;5.304;2023-06-22T05:14:16;28.87;;;15.10;;
19251;SDS011;9760;50.944;5.304;2023-06-22T05:16:43;29.13;;;15.47;;
19251;SDS011;9760;50.944;5.304;2023-06-22T05:19:09;24.30;;;14.33;;
19251;SDS011;9760;50.944;5.304;2023-06-22T05:21:35;28.13;;;15.07;;
19251;SDS011;9760;50.944;5.304;2023-06-22T05:24:01;26.83;;;15.30;;
19251;SDS011;9760;50.944;5.304;2023-06-22T05:26:31;30.87;;;16.33;;
19251;SDS011;9760;50.944;5.304;2023-06-22T05:28:58;25.63;;;16.10;;
19251;SDS011;9760;50.944;5.304;2023-06-22T05:31:25;29.83;;;15.70;;
19251;SDS011;9760;50.944;5.304;2023-06-22T05:33:52;22.33;;;14.43;;
19251;SDS011;9760;50.944;5.304;2023-06-22T05:36:18;31.47;;;15.63;;
19251;SDS011;9760;50.944;5.304;2023-06-22T05:38:45;26.70;;;14.57;;
19251;SDS011;9760;50.944;5.304;2023-06-22T05:41:11;29.93;;;15.77;;
19251;SDS011;9760;50.944;5.304;2023-06-22T05:43:37;29.00;;;16.27;;
19251;SDS011;9760;50.944;5.304;2023-06-22T05:46:03;27.77;;;16.47;;
19251;SDS011;9760;50.944;5.304;2023-06-22T05:48:29;25.07;;;16.03;;
19251;SDS011;9760;50.944;5.304;2023-06-22T05:50:55;28.53;;;17.07;;
19251;SDS011;9760;50.944;5.304;2023-06-22T05:53:21;28.50;;;16.83;;
19251;SDS011;9760;50.944;5.304;2023-06-22T05:55:47;34.30;;;17.93;;
19251;SDS011;9760;50.944;5.304;2023-06-22T05:58:13;31.07;;;16.47;;
19251;SDS011;9760;50.944;5.304;2023-06-22T06:00:39;26.60;;;17.63;;
19251;SDS011;9760;50.944;5.304;2023-06-22T06:03:05;33.47;;;18.23;;
19251;SDS011;9760;50.944;5.304;2023-06-22T06:05:34;26.97;;;16.63;;
19251;SDS011;9760;50.944;5.304;2023-06-22T06:08:01;29.20;;;17.80;;
19251;SDS011;9760;50.944;5.304;2023-06-22T06:10:30;27.60;;;17.77;;
19251;SDS011;9760;50.944;5.304;2023-06-22T06:12:56;30.97;;;17.67;;
19251;SDS011;9760;50.944;5.304;2023-06-22T06:15:22;30.83;;;17.50;;
19251;SDS011;9760;50.944;5.304;2023-06-22T06:20:14;30.47;;;16.97;;
19251;SDS011;9760;50.944;5.304;2023-06-22T06:22:41;31.27;;;17.60;;
19251;SDS011;9760;50.944;5.304;2023-06-22T06:25:08;31.83;;;16.77;;
19251;SDS011;9760;50.944;5.304;2023-06-22T06:27:34;27.77;;;16.43;;
19251;SDS011;9760;50.944;5.304;2023-06-22T06:29:59;30.47;;;17.03;;
19251;SDS011;9760;50.944;5.304;2023-06-22T06:32:25;26.17;;;17.00;;
19251;SDS011;9760;50.944;5.304;2023-06-22T06:34:51;34.07;;;16.70;;
19251;SDS011;9760;50.944;5.304;2023-06-22T06:37:17;26.70;;;16.40;;
19251;SDS011;9760;50.944;5.304;2023-06-22T06:39:43;23.57;;;15.97;;
19251;SDS011;9760;50.944;5.304;2023-06-22T06:42:09;28.03;;;16.63;;
19251;SDS011;9760;50.944;5.304;2023-06-22T06:44:36;26.90;;;17.53;;
19251;SDS011;9760;50.944;5.304;2023-06-22T06:47:03;27.17;;;17.20;;
19251;SDS011;9760;50.944;5.304;2023-06-22T06:49:29;27.57;;;17.07;;
19251;SDS011;9760;50.944;5.304;2023-06-22T06:51:54;37.53;;;18.50;;
19251;SDS011;9760;50.944;5.304;2023-06-22T06:54:21;30.60;;;17.40;;
19251;SDS011;9760;50.944;5.304;2023-06-22T06:56:46;34.13;;;16.83;;
19251;SDS011;9760;50.944;5.304;2023-06-22T06:59:13;28.23;;;17.13;;
19251;SDS011;9760;50.944;5.304;2023-06-22T07:01:40;31.50;;;18.37;;
19251;SDS011;9760;50.944;5.304;2023-06-22T07:04:06;31.27;;;17.93;;
19251;SDS011;9760;50.944;5.304;2023-06-22T07:06:32;34.30;;;17.93;;
19251;SDS011;9760;50.944;5.304;2023-06-22T07:08:58;37.47;;;17.20;;
19251;SDS011;9760;50.944;5.304;2023-06-22T07:11:24;33.90;;;17.03;;
19251;SDS011;9760;50.944;5.304;2023-06-22T07:13:50;38.33;;;17.53;;
19251;SDS011;9760;50.944;5.304;2023-06-22T07:16:16;38.00;;;18.17;;
19251;SDS011;9760;50.944;5.304;2023-06-22T07:18:42;43.40;;;17.47;;
19251;SDS011;9760;50.944;5.304;2023-06-22T07:21:07;33.10;;;16.20;;
19251;SDS011;9760;50.944;5.304;2023-06-22T07:23:33;35.20;;;17.07;;
19251;SDS011;9760;50.944;5.304;2023-06-22T07:25:59;30.67;;;16.50;;
19251;SDS011;9760;50.944;5.304;2023-06-22T07:28:27;36.10;;;15.80;;
19251;SDS011;9760;50.944;5.304;2023-06-22T07:30:56;35.47;;;15.80;;
19251;SDS011;9760;50.944;5.304;2023-06-22T07:33:22;33.53;;;15.87;;
19251;SDS011;9760;50.944;5.304;2023-06-22T07:35:47;39.93;;;16.53;;
19251;SDS011;9760;50.944;5.304;2023-06-22T07:38:16;32.47;;;15.13;;
19251;SDS011;9760;50.944;5.304;2023-06-22T07:40:41;37.67;;;15.70;;
19251;SDS011;9760;50.944;5.304;2023-06-22T07:43:07;34.23;;;15.40;;
19251;SDS011;9760;50.944;5.304;2023-06-22T07:45:33;32.40;;;15.00;;
19251;SDS011;9760;50.944;5.304;2023-06-22T07:48:00;35.77;;;15.57;;
19251;SDS011;9760;50.944;5.304;2023-06-22T07:50:26;30.03;;;16.03;;
19251;SDS011;9760;50.944;5.304;2023-06-22T07:52:51;31.73;;;15.37;;
19251;SDS011;9760;50.944;5.304;2023-06-22T07:55:18;31.17;;;15.60;;
19251;SDS011;9760;50.944;5.304;2023-06-22T07:57:43;29.77;;;15.93;;
19251;SDS011;9760;50.944;5.304;2023-06-22T08:00:12;33.10;;;15.53;;
19251;SDS011;9760;50.944;5.304;2023-06-22T08:02:40;27.70;;;16.37;;
19251;SDS011;9760;50.944;5.304;2023-06-22T08:05:10;27.97;;;15.23;;
19251;SDS011;9760;50.944;5.304;2023-06-22T08:07:36;30.53;;;16.27;;
19251;SDS011;9760;50.944;5.304;2023-06-22T08:10:03;34.77;;;16.33;;
19251;SDS011;9760;50.944;5.304;2023-06-22T08:12:29;29.87;;;16.23;;
19251;SDS011;9760;50.944;5.304;2023-06-22T08:14:55;25.57;;;15.43;;
19251;SDS011;9760;50.944;5.304;2023-06-22T08:17:22;28.60;;;15.20;;
19251;SDS011;9760;50.944;5.304;2023-06-22T08:19:48;31.40;;;15.23;;
19251;SDS011;9760;50.944;5.304;2023-06-22T08:22:14;31.40;;;15.90;;
19251;SDS011;9760;50.944;5.304;2023-06-22T08:24:40;28.60;;;15.37;;
19251;SDS011;9760;50.944;5.304;2023-06-22T08:27:09;26.30;;;15.57;;
19251;SDS011;9760;50.944;5.304;2023-06-22T08:29:36;25.40;;;15.30;;
19251;SDS011;9760;50.944;5.304;2023-06-22T08:32:02;24.83;;;16.10;;
19251;SDS011;9760;50.944;5.304;2023-06-22T08:34:28;23.57;;;15.67;;
19251;SDS011;9760;50.944;5.304;2023-06-22T08:36:54;23.07;;;15.17;;
19251;SDS011;9760;50.944;5.304;2023-06-22T08:39:20;27.70;;;16.17;;
19251;SDS011;9760;50.944;5.304;2023-06-22T08:41:46;25.17;;;15.07;;
19251;SDS011;9760;50.944;5.304;2023-06-22T08:44:12;28.17;;;15.03;;
19251;SDS011;9760;50.944;5.304;2023-06-22T08:46:38;23.13;;;14.80;;
19251;SDS011;9760;50.944;5.304;2023-06-22T08:49:06;24.53;;;15.80;;
19251;SDS011;9760;50.944;5.304;2023-06-22T08:51:31;26.83;;;15.20;;
19251;SDS011;9760;50.944;5.304;2023-06-22T08:53:57;25.37;;;16.27;;
19251;SDS011;9760;50.944;5.304;2023-06-22T08:56:23;22.87;;;15.83;;
19251;SDS011;9760;50.944;5.304;2023-06-22T08:58:48;23.90;;;16.20;;
19251;SDS011;9760;50.944;5.304;2023-06-22T09:01:14;25.87;;;15.80;;
19251;SDS011;9760;50.944;5.304;2023-06-22T09:03:40;27.40;;;16.67;;
19251;SDS011;9760;50.944;5.304;2023-06-22T09:06:06;27.50;;;17.33;;
19251;SDS011;9760;50.944;5.304;2023-06-22T09:08:34;25.50;;;17.10;;
19251;SDS011;9760;50.944;5.304;2023-06-22T09:11:00;30.23;;;17.17;;
19251;SDS011;9760;50.944;5.304;2023-06-22T09:13:26;27.47;;;17.20;;
19251;SDS011;9760;50.944;5.304;2023-06-22T09:15:53;27.73;;;16.77;;
19251;SDS011;9760;50.944;5.304;2023-06-22T09:18:18;27.90;;;17.80;;
19251;SDS011;9760;50.944;5.304;2023-06-22T09:20:44;27.70;;;17.50;;
19251;SDS011;9760;50.944;5.304;2023-06-22T09:23:10;30.87;;;17.90;;
19251;SDS011;9760;50.944;5.304;2023-06-22T09:25:36;24.70;;;17.73;;
19251;SDS011;9760;50.944;5.304;2023-06-22T09:28:02;25.53;;;17.37;;
19251;SDS011;9760;50.944;5.304;2023-06-22T09:30:27;28.40;;;17.80;;
19251;SDS011;9760;50.944;5.304;2023-06-22T09:32:53;26.77;;;18.00;;
19251;SDS011;9760;50.944;5.304;2023-06-22T09:35:19;28.77;;;18.13;;
19251;SDS011;9760;50.944;5.304;2023-06-22T09:37:45;27.13;;;18.30;;
19251;SDS011;9760;50.944;5.304;2023-06-22T09:40:11;39.00;;;19.30;;
19251;SDS011;9760;50.944;5.304;2023-06-22T09:42:38;32.50;;;19.63;;
19251;SDS011;9760;50.944;5.304;2023-06-22T09:45:04;30.43;;;19.87;;
19251;SDS011;9760;50.944;5.304;2023-06-22T09:47:30;29.60;;;17.63;;
19251;SDS011;9760;50.944;5.304;2023-06-22T09:49:56;32.23;;;18.80;;
19251;SDS011;9760;50.944;5.304;2023-06-22T09:52:24;29.07;;;18.97;;
19251;SDS011;9760;50.944;5.304;2023-06-22T09:54:49;30.90;;;18.30;;
19251;SDS011;9760;50.944;5.304;2023-06-22T09:57:15;28.50;;;20.00;;
19251;SDS011;9760;50.944;5.304;2023-06-22T09:59:41;31.47;;;20.53;;
19251;SDS011;9760;50.944;5.304;2023-06-22T10:02:06;32.57;;;20.47;;
19251;SDS011;9760;50.944;5.304;2023-06-22T10:04:33;35.47;;;21.93;;
19251;SDS011;9760;50.944;5.304;2023-06-22T10:07:02;30.80;;;22.77;;
19251;SDS011;9760;50.944;5.304;2023-06-22T10:09:28;32.67;;;22.73;;
19251;SDS011;9760;50.944;5.304;2023-06-22T10:11:54;34.67;;;22.83;;
19251;SDS011;9760;50.944;5.304;2023-06-22T10:14:19;40.47;;;23.60;;
19251;SDS011;9760;50.944;5.304;2023-06-22T10:16:45;49.10;;;26.23;;
19251;SDS011;9760;50.944;5.304;2023-06-22T10:19:11;38.47;;;24.53;;
19251;SDS011;9760;50.944;5.304;2023-06-22T10:21:37;40.43;;;25.77;;
19251;SDS011;9760;50.944;5.304;2023-06-22T10:24:02;44.47;;;27.37;;
19251;SDS011;9760;50.944;5.304;2023-06-22T10:26:33;44.97;;;29.70;;
19251;SDS011;9760;50.944;5.304;2023-06-22T10:29:00;50.00;;;30.00;;
19251;SDS011;9760;50.944;5.304;2023-06-22T10:31:26;50.80;;;30.93;;
19251;SDS011;9760;50.944;5.304;2023-06-22T10:33:52;50.83;;;30.90;;
19251;SDS011;9760;50.944;5.304;2023-06-22T10:36:19;51.03;;;30.93;;
19251;SDS011;9760;50.944;5.304;2023-06-22T10:38:45;54.10;;;33.03;;
19251;SDS011;9760;50.944;5.304;2023-06-22T10:41:12;50.50;;;32.30;;
19251;SDS011;9760;50.944;5.304;2023-06-22T10:43:37;58.50;;;35.93;;
19251;SDS011;9760;50.944;5.304;2023-06-22T10:46:03;55.23;;;34.37;;
19251;SDS011;9760;50.944;5.304;2023-06-22T10:48:29;64.30;;;36.10;;
19251;SDS011;9760;50.944;5.304;2023-06-22T10:50:54;60.33;;;36.07;;
19251;SDS011;9760;50.944;5.304;2023-06-22T10:53:20;55.10;;;35.83;;
19251;SDS011;9760;50.944;5.304;2023-06-22T10:55:46;64.90;;;39.17;;
19251;SDS011;9760;50.944;5.304;2023-06-22T10:58:13;65.57;;;39.77;;
19251;SDS011;9760;50.944;5.304;2023-06-22T11:00:39;64.03;;;38.57;;
19251;SDS011;9760;50.944;5.304;2023-06-22T11:03:04;65.33;;;39.77;;
19251;SDS011;9760;50.944;5.304;2023-06-22T11:05:30;62.20;;;39.63;;
19251;SDS011;9760;50.944;5.304;2023-06-22T11:07:57;65.10;;;40.33;;
19251;SDS011;9760;50.944;5.304;2023-06-22T11:10:22;60.80;;;39.93;;
19251;SDS011;9760;50.944;5.304;2023-06-22T11:12:48;68.00;;;42.33;;
19251;SDS011;9760;50.944;5.304;2023-06-22T11:15:14;71.20;;;41.20;;
19251;SDS011;9760;50.944;5.304;2023-06-22T11:17:39;68.77;;;41.00;;
19251;SDS011;9760;50.944;5.304;2023-06-22T11:20:05;64.50;;;40.83;;
19251;SDS011;9760;50.944;5.304;2023-06-22T11:22:41;67.60;;;42.50;;
19251;SDS011;9760;50.944;5.304;2023-06-22T11:25:06;68.63;;;42.37;;
19251;SDS011;9760;50.944;5.304;2023-06-22T11:27:32;64.90;;;41.33;;
19251;SDS011;9760;50.944;5.304;2023-06-22T11:29:58;63.63;;;41.03;;
19251;SDS011;9760;50.944;5.304;2023-06-22T11:32:24;57.73;;;37.97;;
19251;SDS011;9760;50.944;5.304;2023-06-22T11:34:49;50.57;;;35.50;;
19251;SDS011;9760;50.944;5.304;2023-06-22T11:37:15;52.97;;;35.30;;
19251;SDS011;9760;50.944;5.304;2023-06-22T11:39:41;49.07;;;32.87;;
19251;SDS011;9760;50.944;5.304;2023-06-22T11:42:07;51.17;;;32.33;;
19251;SDS011;9760;50.944;5.304;2023-06-22T11:44:34;43.83;;;29.87;;
19251;SDS011;9760;50.944;5.304;2023-06-22T11:47:00;44.27;;;30.53;;
19251;SDS011;9760;50.944;5.304;2023-06-22T11:49:28;45.97;;;29.80;;
19251;SDS011;9760;50.944;5.304;2023-06-22T11:51:53;45.33;;;30.10;;
19251;SDS011;9760;50.944;5.304;2023-06-22T11:54:19;50.10;;;31.30;;
19251;SDS011;9760;50.944;5.304;2023-06-22T11:56:45;45.07;;;30.10;;
19251;SDS011;9760;50.944;5.304;2023-06-22T11:59:10;46.57;;;32.33;;
19251;SDS011;9760;50.944;5.304;2023-06-22T12:01:36;49.83;;;30.97;;
19251;SDS011;9760;50.944;5.304;2023-06-22T12:04:02;50.27;;;32.90;;
19251;SDS011;9760;50.944;5.304;2023-06-22T12:06:30;48.33;;;31.80;;
19251;SDS011;9760;50.944;5.304;2023-06-22T12:09:03;48.13;;;33.27;;
19251;SDS011;9760;50.944;5.304;2023-06-22T12:11:32;57.07;;;35.73;;
19251;SDS011;9760;50.944;5.304;2023-06-22T12:13:57;53.97;;;34.70;;
19251;SDS011;9760;50.944;5.304;2023-06-22T12:16:26;58.20;;;35.20;;
19251;SDS011;9760;50.944;5.304;2023-06-22T12:18:53;57.27;;;36.07;;
19251;SDS011;9760;50.944;5.304;2023-06-22T12:21:18;58.27;;;37.47;;
19251;SDS011;9760;50.944;5.304;2023-06-22T12:23:44;62.17;;;37.60;;
19251;SDS011;9760;50.944;5.304;2023-06-22T12:26:10;63.70;;;37.77;;
19251;SDS011;9760;50.944;5.304;2023-06-22T12:28:35;62.13;;;39.93;;
19251;SDS011;9760;50.944;5.304;2023-06-22T12:31:01;59.17;;;37.23;;
19251;SDS011;9760;50.944;5.304;2023-06-22T12:33:27;59.53;;;38.80;;
19251;SDS011;9760;50.944;5.304;2023-06-22T12:35:52;63.00;;;40.27;;
19251;SDS011;9760;50.944;5.304;2023-06-22T12:38:18;59.87;;;38.20;;
19251;SDS011;9760;50.944;5.304;2023-06-22T12:40:43;63.60;;;39.07;;
19251;SDS011;9760;50.944;5.304;2023-06-22T12:43:09;61.33;;;39.40;;
19251;SDS011;9760;50.944;5.304;2023-06-22T12:45:35;62.13;;;40.07;;
19251;SDS011;9760;50.944;5.304;2023-06-22T12:48:00;67.50;;;42.50;;
19251;SDS011;9760;50.944;5.304;2023-06-22T12:50:26;61.03;;;36.77;;
19251;SDS011;9760;50.944;5.304;2023-06-22T12:52:52;67.20;;;39.63;;
19251;SDS011;9760;50.944;5.304;2023-06-22T12:55:17;66.13;;;40.57;;
19251;SDS011;9760;50.944;5.304;2023-06-22T12:57:43;66.77;;;40.53;;
19251;SDS011;9760;50.944;5.304;2023-06-22T13:00:09;70.23;;;42.97;;
19251;SDS011;9760;50.944;5.304;2023-06-22T13:02:35;61.03;;;40.27;;
19251;SDS011;9760;50.944;5.304;2023-06-22T13:05:02;62.57;;;36.97;;
19251;SDS011;9760;50.944;5.304;2023-06-22T13:07:27;60.80;;;37.87;;
19251;SDS011;9760;50.944;5.304;2023-06-22T13:09:53;64.03;;;39.03;;
19251;SDS011;9760;50.944;5.304;2023-06-22T13:12:19;61.17;;;36.57;;
19251;SDS011;9760;50.944;5.304;2023-06-22T13:14:45;60.47;;;37.87;;
19251;SDS011;9760;50.944;5.304;2023-06-22T13:17:12;56.70;;;36.63;;
19251;SDS011;9760;50.944;5.304;2023-06-22T13:19:38;57.60;;;36.73;;
19251;SDS011;9760;50.944;5.304;2023-06-22T13:22:04;56.83;;;35.67;;
19251;SDS011;9760;50.944;5.304;2023-06-22T13:24:30;61.57;;;35.57;;
19251;SDS011;9760;50.944;5.304;2023-06-22T13:26:56;51.53;;;33.27;;
19251;SDS011;9760;50.944;5.304;2023-06-22T13:29:21;50.67;;;32.53;;
19251;SDS011;9760;50.944;5.304;2023-06-22T13:31:47;58.87;;;33.40;;
19251;SDS011;9760;50.944;5.304;2023-06-22T13:34:13;51.93;;;31.33;;
19251;SDS011;9760;50.944;5.304;2023-06-22T13:36:38;59.53;;;35.03;;
19251;SDS011;9760;50.944;5.304;2023-06-22T13:39:04;55.13;;;33.70;;
19251;SDS011;9760;50.944;5.304;2023-06-22T13:41:30;53.63;;;34.70;;
19251;SDS011;9760;50.944;5.304;2023-06-22T13:43:55;56.27;;;33.23;;
19251;SDS011;9760;50.944;5.304;2023-06-22T13:46:21;55.93;;;34.53;;
19251;SDS011;9760;50.944;5.304;2023-06-22T13:48:46;56.47;;;33.93;;
19251;SDS011;9760;50.944;5.304;2023-06-22T13:51:12;60.10;;;34.17;;
19251;SDS011;9760;50.944;5.304;2023-06-22T13:53:38;54.63;;;32.57;;
19251;SDS011;9760;50.944;5.304;2023-06-22T13:56:03;55.83;;;33.40;;
19251;SDS011;9760;50.944;5.304;2023-06-22T13:58:29;59.33;;;34.33;;
19251;SDS011;9760;50.944;5.304;2023-06-22T14:00:54;60.53;;;36.87;;
19251;SDS011;9760;50.944;5.304;2023-06-22T14:03:20;61.83;;;35.10;;
19251;SDS011;9760;50.944;5.304;2023-06-22T14:05:46;65.80;;;37.73;;
19251;SDS011;9760;50.944;5.304;2023-06-22T14:08:11;66.13;;;37.20;;
19251;SDS011;9760;50.944;5.304;2023-06-22T14:10:37;69.73;;;39.33;;
19251;SDS011;9760;50.944;5.304;2023-06-22T14:13:03;64.57;;;40.40;;
19251;SDS011;9760;50.944;5.304;2023-06-22T14:15:31;68.50;;;40.13;;
19251;SDS011;9760;50.944;5.304;2023-06-22T14:17:57;67.20;;;39.17;;
19251;SDS011;9760;50.944;5.304;2023-06-22T14:20:22;70.43;;;40.23;;
19251;SDS011;9760;50.944;5.304;2023-06-22T14:22:48;65.37;;;37.57;;
19251;SDS011;9760;50.944;5.304;2023-06-22T14:25:14;69.87;;;43.27;;
19251;SDS011;9760;50.944;5.304;2023-06-22T14:27:39;68.80;;;42.50;;
19251;SDS011;9760;50.944;5.304;2023-06-22T14:30:05;75.83;;;41.47;;
19251;SDS011;9760;50.944;5.304;2023-06-22T14:32:31;75.17;;;43.87;;
19251;SDS011;9760;50.944;5.304;2023-06-22T14:34:58;71.93;;;44.10;;
19251;SDS011;9760;50.944;5.304;2023-06-22T14:37:24;74.67;;;42.37;;
19251;SDS011;9760;50.944;5.304;2023-06-22T14:39:49;66.33;;;41.23;;
19251;SDS011;9760;50.944;5.304;2023-06-22T14:42:15;69.37;;;41.13;;
19251;SDS011;9760;50.944;5.304;2023-06-22T14:44:40;67.63;;;39.93;;